sensor_id;sensor_type;location;lat;lon;timestamp;temperature;humidity
16076;DHT22;8142;48.242;11.644;2022-09-29T00:00:38;9.80;99.90
16076;DHT22;8142;48.242;11.644;2022-09-29T00:03:04;9.80;99.90
16076;DHT22;8142;48.242;11.644;2022-09-29T00:05:30;9.80;99.90
16076;DHT22;8142;48.242;11.644;2022-09-29T00:07:56;9.80;99.90
16076;DHT22;8142;48.242;11.644;2022-09-29T00:10:22;9.80;99.90
16076;DHT22;8142;48.242;11.644;2022-09-29T00:12:48;9.80;99.90
16076;DHT22;8142;48.242;11.644;2022-09-29T00:15:14;9.80;99.90
16076;DHT22;8142;48.242;11.644;2022-09-29T00:17:40;9.80;99.90
16076;DHT22;8142;48.242;11.644;2022-09-29T00:20:06;9.80;99.90
16076;DHT22;8142;48.242;11.644;2022-09-29T00:22:33;9.80;99.90
16076;DHT22;8142;48.242;11.644;2022-09-29T00:24:59;9.90;99.90
16076;DHT22;8142;48.242;11.644;2022-09-29T00:27:25;9.80;99.90
16076;DHT22;8142;48.242;11.644;2022-09-29T00:29:51;9.80;99.90
16076;DHT22;8142;48.242;11.644;2022-09-29T00:32:17;9.80;99.90
16076;DHT22;8142;48.242;11.644;2022-09-29T00:34:42;9.80;99.90
16076;DHT22;8142;48.242;11.644;2022-09-29T00:37:09;9.80;99.90
16076;DHT22;8142;48.242;11.644;2022-09-29T00:39:35;9.80;99.90
16076;DHT22;8142;48.242;11.644;2022-09-29T00:42:00;9.80;99.90
16076;DHT22;8142;48.242;11.644;2022-09-29T00:47:21;9.80;99.90
16076;DHT22;8142;48.242;11.644;2022-09-29T00:50:04;9.90;99.90
16076;DHT22;8142;48.242;11.644;2022-09-29T00:52:38;9.90;99.90
16076;DHT22;8142;48.242;11.644;2022-09-29T00:55:17;9.90;99.90
16076;DHT22;8142;48.242;11.644;2022-09-29T00:58:02;9.90;99.90
16076;DHT22;8142;48.242;11.644;2022-09-29T01:00:30;9.90;99.90
16076;DHT22;8142;48.242;11.644;2022-09-29T01:03:03;9.90;99.90
16076;DHT22;8142;48.242;11.644;2022-09-29T01:05:38;9.90;99.90
16076;DHT22;8142;48.242;11.644;2022-09-29T01:08:19;9.90;99.90
16076;DHT22;8142;48.242;11.644;2022-09-29T01:10:49;9.90;99.90
16076;DHT22;8142;48.242;11.644;2022-09-29T01:13:16;10.00;99.90
16076;DHT22;8142;48.242;11.644;2022-09-29T01:15:42;10.00;99.90
16076;DHT22;8142;48.242;11.644;2022-09-29T01:18:07;10.00;99.90
16076;DHT22;8142;48.242;11.644;2022-09-29T01:20:38;10.00;99.90
16076;DHT22;8142;48.242;11.644;2022-09-29T01:24:01;10.00;99.90
16076;DHT22;8142;48.242;11.644;2022-09-29T01:29:53;10.00;99.90
16076;DHT22;8142;48.242;11.644;2022-09-29T01:43:04;10.10;99.90
16076;DHT22;8142;48.242;11.644;2022-09-29T01:45:35;10.00;99.90
16076;DHT22;8142;48.242;11.644;2022-09-29T01:48:09;10.00;99.90
16076;DHT22;8142;48.242;11.644;2022-09-29T01:50:43;10.00;99.90
16076;DHT22;8142;48.242;11.644;2022-09-29T01:53:14;9.90;99.90
16076;DHT22;8142;48.242;11.644;2022-09-29T01:55:48;10.00;99.90
16076;DHT22;8142;48.242;11.644;2022-09-29T01:58:29;10.00;99.90
16076;DHT22;8142;48.242;11.644;2022-09-29T02:01:02;10.00;99.90
16076;DHT22;8142;48.242;11.644;2022-09-29T02:03:34;9.90;99.90
16076;DHT22;8142;48.242;11.644;2022-09-29T02:06:14;10.00;99.90
16076;DHT22;8142;48.242;11.644;2022-09-29T02:08:47;9.90;99.90
16076;DHT22;8142;48.242;11.644;2022-09-29T02:11:16;9.90;99.90
16076;DHT22;8142;48.242;11.644;2022-09-29T02:13:59;9.90;99.90
16076;DHT22;8142;48.242;11.644;2022-09-29T02:16:33;9.90;99.90
16076;DHT22;8142;48.242;11.644;2022-09-29T02:19:14;9.90;99.90
16076;DHT22;8142;48.242;11.644;2022-09-29T02:21:42;9.90;99.90
16076;DHT22;8142;48.242;11.644;2022-09-29T02:24:10;9.90;99.90
16076;DHT22;8142;48.242;11.644;2022-09-29T02:26:37;9.90;99.90
16076;DHT22;8142;48.242;11.644;2022-09-29T02:29:04;9.80;99.90
16076;DHT22;8142;48.242;11.644;2022-09-29T02:31:32;9.80;99.90
16076;DHT22;8142;48.242;11.644;2022-09-29T02:34:00;9.80;99.90
16076;DHT22;8142;48.242;11.644;2022-09-29T02:36:49;9.80;99.90
16076;DHT22;8142;48.242;11.644;2022-09-29T02:39:34;9.80;99.90
16076;DHT22;8142;48.242;11.644;2022-09-29T02:44:52;9.80;99.90
16076;DHT22;8142;48.242;11.644;2022-09-29T02:47:36;9.80;99.90
16076;DHT22;8142;48.242;11.644;2022-09-29T02:50:30;9.80;99.90
16076;DHT22;8142;48.242;11.644;2022-09-29T02:53:44;9.80;99.90
16076;DHT22;8142;48.242;11.644;2022-09-29T02:59:03;9.80;99.90
16076;DHT22;8142;48.242;11.644;2022-09-29T03:01:32;9.80;99.90
16076;DHT22;8142;48.242;11.644;2022-09-29T03:03:59;9.80;99.90
16076;DHT22;8142;48.242;11.644;2022-09-29T03:06:25;9.80;99.90
16076;DHT22;8142;48.242;11.644;2022-09-29T03:08:52;9.60;99.90
16076;DHT22;8142;48.242;11.644;2022-09-29T03:11:18;9.40;99.90
16076;DHT22;8142;48.242;11.644;2022-09-29T03:13:43;9.20;99.90
16076;DHT22;8142;48.242;11.644;2022-09-29T03:16:09;9.00;99.90
16076;DHT22;8142;48.242;11.644;2022-09-29T03:18:36;8.80;99.90
16076;DHT22;8142;48.242;11.644;2022-09-29T03:21:02;8.60;99.90
16076;DHT22;8142;48.242;11.644;2022-09-29T03:23:28;8.50;99.90
16076;DHT22;8142;48.242;11.644;2022-09-29T03:25:53;8.30;99.90
16076;DHT22;8142;48.242;11.644;2022-09-29T03:28:19;8.30;99.90
16076;DHT22;8142;48.242;11.644;2022-09-29T03:30:45;8.20;99.90
16076;DHT22;8142;48.242;11.644;2022-09-29T03:33:11;8.10;99.90
16076;DHT22;8142;48.242;11.644;2022-09-29T03:35:37;8.10;99.90
16076;DHT22;8142;48.242;11.644;2022-09-29T03:38:03;8.00;99.90
16076;DHT22;8142;48.242;11.644;2022-09-29T03:40:29;8.10;99.90
16076;DHT22;8142;48.242;11.644;2022-09-29T03:42:55;8.00;99.90
16076;DHT22;8142;48.242;11.644;2022-09-29T03:45:21;7.90;99.90
16076;DHT22;8142;48.242;11.644;2022-09-29T03:47:46;7.80;99.90
16076;DHT22;8142;48.242;11.644;2022-09-29T03:50:12;7.80;99.90
16076;DHT22;8142;48.242;11.644;2022-09-29T03:52:38;7.80;99.90
16076;DHT22;8142;48.242;11.644;2022-09-29T03:55:04;7.90;99.90
16076;DHT22;8142;48.242;11.644;2022-09-29T03:57:31;7.90;99.90
16076;DHT22;8142;48.242;11.644;2022-09-29T03:59:56;8.00;99.90
16076;DHT22;8142;48.242;11.644;2022-09-29T04:02:22;8.10;99.90
16076;DHT22;8142;48.242;11.644;2022-09-29T04:04:48;8.20;99.90
16076;DHT22;8142;48.242;11.644;2022-09-29T04:07:14;8.30;99.90
16076;DHT22;8142;48.242;11.644;2022-09-29T04:09:40;8.50;99.90
16076;DHT22;8142;48.242;11.644;2022-09-29T04:12:06;8.50;99.90
16076;DHT22;8142;48.242;11.644;2022-09-29T04:14:32;8.60;99.90
16076;DHT22;8142;48.242;11.644;2022-09-29T04:16:58;8.70;99.90
16076;DHT22;8142;48.242;11.644;2022-09-29T04:19:24;8.80;99.90
16076;DHT22;8142;48.242;11.644;2022-09-29T04:21:49;8.90;99.90
16076;DHT22;8142;48.242;11.644;2022-09-29T04:24:15;8.90;99.90
16076;DHT22;8142;48.242;11.644;2022-09-29T04:26:41;9.00;99.90
16076;DHT22;8142;48.242;11.644;2022-09-29T04:29:07;9.00;99.90
16076;DHT22;8142;48.242;11.644;2022-09-29T04:31:33;9.10;99.90
16076;DHT22;8142;48.242;11.644;2022-09-29T04:33:58;9.10;99.90
16076;DHT22;8142;48.242;11.644;2022-09-29T04:36:24;9.20;99.90
16076;DHT22;8142;48.242;11.644;2022-09-29T04:38:50;9.20;99.90
16076;DHT22;8142;48.242;11.644;2022-09-29T04:41:16;9.30;99.90
16076;DHT22;8142;48.242;11.644;2022-09-29T04:43:45;9.30;99.90
16076;DHT22;8142;48.242;11.644;2022-09-29T04:46:12;9.30;99.90
16076;DHT22;8142;48.242;11.644;2022-09-29T04:48:38;9.40;99.90
16076;DHT22;8142;48.242;11.644;2022-09-29T04:51:05;9.40;99.90
16076;DHT22;8142;48.242;11.644;2022-09-29T04:53:31;9.50;99.90
16076;DHT22;8142;48.242;11.644;2022-09-29T04:55:56;9.50;99.90
16076;DHT22;8142;48.242;11.644;2022-09-29T04:58:22;9.50;99.90
16076;DHT22;8142;48.242;11.644;2022-09-29T05:00:48;9.60;99.90
16076;DHT22;8142;48.242;11.644;2022-09-29T05:03:14;9.60;99.90
16076;DHT22;8142;48.242;11.644;2022-09-29T05:05:40;9.60;99.90
16076;DHT22;8142;48.242;11.644;2022-09-29T05:08:06;9.70;99.90
16076;DHT22;8142;48.242;11.644;2022-09-29T05:10:32;9.70;99.90
16076;DHT22;8142;48.242;11.644;2022-09-29T05:12:58;9.70;99.90
16076;DHT22;8142;48.242;11.644;2022-09-29T05:15:24;9.70;99.90
16076;DHT22;8142;48.242;11.644;2022-09-29T05:17:50;9.80;99.90
16076;DHT22;8142;48.242;11.644;2022-09-29T05:20:16;9.80;99.90
16076;DHT22;8142;48.242;11.644;2022-09-29T05:22:42;9.80;99.90
16076;DHT22;8142;48.242;11.644;2022-09-29T05:25:08;9.80;99.90
16076;DHT22;8142;48.242;11.644;2022-09-29T05:27:35;9.80;99.90
16076;DHT22;8142;48.242;11.644;2022-09-29T05:30:01;9.80;99.90
16076;DHT22;8142;48.242;11.644;2022-09-29T05:32:27;9.80;99.90
16076;DHT22;8142;48.242;11.644;2022-09-29T05:34:53;9.80;99.90
16076;DHT22;8142;48.242;11.644;2022-09-29T05:37:19;9.80;99.90
16076;DHT22;8142;48.242;11.644;2022-09-29T05:39:45;9.60;99.90
16076;DHT22;8142;48.242;11.644;2022-09-29T05:42:12;9.40;99.90
16076;DHT22;8142;48.242;11.644;2022-09-29T05:44:38;9.20;99.90
16076;DHT22;8142;48.242;11.644;2022-09-29T05:47:04;9.00;99.90
16076;DHT22;8142;48.242;11.644;2022-09-29T05:49:30;8.80;99.90
16076;DHT22;8142;48.242;11.644;2022-09-29T05:51:58;8.60;99.90
16076;DHT22;8142;48.242;11.644;2022-09-29T05:54:24;8.50;99.90
16076;DHT22;8142;48.242;11.644;2022-09-29T05:56:52;8.50;99.90
16076;DHT22;8142;48.242;11.644;2022-09-29T05:59:18;8.40;99.90
16076;DHT22;8142;48.242;11.644;2022-09-29T06:01:43;8.40;99.90
16076;DHT22;8142;48.242;11.644;2022-09-29T06:04:10;8.30;99.90
16076;DHT22;8142;48.242;11.644;2022-09-29T06:06:36;8.30;99.90
16076;DHT22;8142;48.242;11.644;2022-09-29T06:09:05;8.20;99.90
16076;DHT22;8142;48.242;11.644;2022-09-29T06:11:31;8.20;99.90
16076;DHT22;8142;48.242;11.644;2022-09-29T06:13:57;8.10;99.90
16076;DHT22;8142;48.242;11.644;2022-09-29T06:16:25;8.10;99.90
16076;DHT22;8142;48.242;11.644;2022-09-29T06:18:51;8.10;99.90
16076;DHT22;8142;48.242;11.644;2022-09-29T06:21:20;8.20;99.90
16076;DHT22;8142;48.242;11.644;2022-09-29T06:23:46;8.30;99.90
16076;DHT22;8142;48.242;11.644;2022-09-29T06:26:14;8.40;99.90
16076;DHT22;8142;48.242;11.644;2022-09-29T06:28:40;8.60;99.90
16076;DHT22;8142;48.242;11.644;2022-09-29T06:31:10;8.70;99.90
16076;DHT22;8142;48.242;11.644;2022-09-29T06:33:37;8.80;99.90
16076;DHT22;8142;48.242;11.644;2022-09-29T06:36:52;8.90;99.90
16076;DHT22;8142;48.242;11.644;2022-09-29T06:39:13;9.10;99.90
16076;DHT22;8142;48.242;11.644;2022-09-29T06:41:39;9.20;99.90
16076;DHT22;8142;48.242;11.644;2022-09-29T06:44:06;9.30;99.90
16076;DHT22;8142;48.242;11.644;2022-09-29T06:46:32;9.30;99.90
16076;DHT22;8142;48.242;11.644;2022-09-29T06:48:58;9.50;99.90
16076;DHT22;8142;48.242;11.644;2022-09-29T06:51:24;9.50;99.90
16076;DHT22;8142;48.242;11.644;2022-09-29T06:53:50;9.60;99.90
16076;DHT22;8142;48.242;11.644;2022-09-29T06:56:17;9.70;99.90
16076;DHT22;8142;48.242;11.644;2022-09-29T06:58:44;9.80;99.90
16076;DHT22;8142;48.242;11.644;2022-09-29T07:01:10;9.90;99.90
16076;DHT22;8142;48.242;11.644;2022-09-29T07:03:37;9.90;99.90
16076;DHT22;8142;48.242;11.644;2022-09-29T07:06:08;10.00;99.90
16076;DHT22;8142;48.242;11.644;2022-09-29T07:08:35;10.10;99.90
16076;DHT22;8142;48.242;11.644;2022-09-29T07:11:03;10.20;99.90
16076;DHT22;8142;48.242;11.644;2022-09-29T07:13:29;10.20;99.90
16076;DHT22;8142;48.242;11.644;2022-09-29T07:15:55;10.20;99.90
16076;DHT22;8142;48.242;11.644;2022-09-29T07:18:21;10.30;99.90
16076;DHT22;8142;48.242;11.644;2022-09-29T07:20:47;10.30;99.90
16076;DHT22;8142;48.242;11.644;2022-09-29T07:23:13;10.30;99.90
16076;DHT22;8142;48.242;11.644;2022-09-29T07:25:39;10.40;99.90
16076;DHT22;8142;48.242;11.644;2022-09-29T07:28:04;10.50;99.90
16076;DHT22;8142;48.242;11.644;2022-09-29T07:30:30;10.40;99.90
16076;DHT22;8142;48.242;11.644;2022-09-29T07:32:57;10.50;99.90
16076;DHT22;8142;48.242;11.644;2022-09-29T07:35:23;10.50;99.90
16076;DHT22;8142;48.242;11.644;2022-09-29T07:37:55;10.60;99.90
16076;DHT22;8142;48.242;11.644;2022-09-29T07:40:22;10.60;99.90
16076;DHT22;8142;48.242;11.644;2022-09-29T07:42:49;10.60;99.90
16076;DHT22;8142;48.242;11.644;2022-09-29T07:45:16;10.70;99.90
16076;DHT22;8142;48.242;11.644;2022-09-29T07:47:42;10.80;99.90
16076;DHT22;8142;48.242;11.644;2022-09-29T07:50:08;10.80;99.90
16076;DHT22;8142;48.242;11.644;2022-09-29T07:52:34;10.90;99.90
16076;DHT22;8142;48.242;11.644;2022-09-29T07:55:01;10.90;99.90
16076;DHT22;8142;48.242;11.644;2022-09-29T07:57:27;10.90;99.90
16076;DHT22;8142;48.242;11.644;2022-09-29T07:59:53;11.00;99.90
16076;DHT22;8142;48.242;11.644;2022-09-29T08:02:20;11.00;99.90
16076;DHT22;8142;48.242;11.644;2022-09-29T08:04:45;11.00;99.90
16076;DHT22;8142;48.242;11.644;2022-09-29T08:07:11;11.10;99.90
16076;DHT22;8142;48.242;11.644;2022-09-29T08:09:37;11.20;99.90
16076;DHT22;8142;48.242;11.644;2022-09-29T08:12:03;11.20;99.90
16076;DHT22;8142;48.242;11.644;2022-09-29T08:14:29;11.20;99.90
16076;DHT22;8142;48.242;11.644;2022-09-29T08:16:55;11.30;99.90
16076;DHT22;8142;48.242;11.644;2022-09-29T08:19:20;11.30;99.90
16076;DHT22;8142;48.242;11.644;2022-09-29T08:21:46;11.40;99.90
16076;DHT22;8142;48.242;11.644;2022-09-29T08:24:15;11.40;99.90
16076;DHT22;8142;48.242;11.644;2022-09-29T08:26:43;11.50;99.90
16076;DHT22;8142;48.242;11.644;2022-09-29T08:29:10;11.50;99.90
16076;DHT22;8142;48.242;11.644;2022-09-29T08:31:36;11.50;99.90
16076;DHT22;8142;48.242;11.644;2022-09-29T08:34:02;11.50;99.90
16076;DHT22;8142;48.242;11.644;2022-09-29T08:36:28;11.50;99.90
16076;DHT22;8142;48.242;11.644;2022-09-29T08:38:55;11.60;99.90
16076;DHT22;8142;48.242;11.644;2022-09-29T08:41:49;11.60;99.90
16076;DHT22;8142;48.242;11.644;2022-09-29T08:44:40;11.60;99.90
16076;DHT22;8142;48.242;11.644;2022-09-29T08:47:13;11.70;99.90
16076;DHT22;8142;48.242;11.644;2022-09-29T08:49:43;11.70;99.90
16076;DHT22;8142;48.242;11.644;2022-09-29T08:52:24;11.70;99.90
16076;DHT22;8142;48.242;11.644;2022-09-29T08:57:42;11.80;99.90
16076;DHT22;8142;48.242;11.644;2022-09-29T09:00:16;11.80;99.90
16076;DHT22;8142;48.242;11.644;2022-09-29T09:08:15;11.90;99.90
16076;DHT22;8142;48.242;11.644;2022-09-29T09:13:39;11.90;99.90
16076;DHT22;8142;48.242;11.644;2022-09-29T09:22:04;11.90;99.90
16076;DHT22;8142;48.242;11.644;2022-09-29T09:24:48;11.90;99.90
16076;DHT22;8142;48.242;11.644;2022-09-29T09:27:20;11.90;99.90
16076;DHT22;8142;48.242;11.644;2022-09-29T09:29:49;11.90;99.90
16076;DHT22;8142;48.242;11.644;2022-09-29T09:32:27;12.00;99.90
16076;DHT22;8142;48.242;11.644;2022-09-29T09:35:04;11.90;99.90
16076;DHT22;8142;48.242;11.644;2022-09-29T09:37:38;11.90;99.90
16076;DHT22;8142;48.242;11.644;2022-09-29T09:40:27;11.90;99.90
16076;DHT22;8142;48.242;11.644;2022-09-29T09:43:27;11.90;99.90
16076;DHT22;8142;48.242;11.644;2022-09-29T09:46:12;11.90;99.90
16076;DHT22;8142;48.242;11.644;2022-09-29T09:48:43;11.90;99.90
16076;DHT22;8142;48.242;11.644;2022-09-29T09:51:36;11.90;99.90
16076;DHT22;8142;48.242;11.644;2022-09-29T09:54:10;11.90;99.90
16076;DHT22;8142;48.242;11.644;2022-09-29T09:59:46;11.90;99.90
16076;DHT22;8142;48.242;11.644;2022-09-29T10:02:18;11.90;99.90
16076;DHT22;8142;48.242;11.644;2022-09-29T10:04:48;11.90;99.90
16076;DHT22;8142;48.242;11.644;2022-09-29T10:07:20;11.90;99.90
16076;DHT22;8142;48.242;11.644;2022-09-29T10:09:46;11.90;99.90
16076;DHT22;8142;48.242;11.644;2022-09-29T10:12:23;12.00;99.90
16076;DHT22;8142;48.242;11.644;2022-09-29T10:14:56;12.00;99.90
16076;DHT22;8142;48.242;11.644;2022-09-29T10:17:29;12.00;99.90
16076;DHT22;8142;48.242;11.644;2022-09-29T10:20:03;12.00;99.90
16076;DHT22;8142;48.242;11.644;2022-09-29T10:22:31;12.00;99.90
16076;DHT22;8142;48.242;11.644;2022-09-29T10:27:52;12.00;99.90
16076;DHT22;8142;48.242;11.644;2022-09-29T10:30:33;12.00;99.90
16076;DHT22;8142;48.242;11.644;2022-09-29T10:33:01;12.00;99.90
16076;DHT22;8142;48.242;11.644;2022-09-29T10:35:36;12.00;99.90
16076;DHT22;8142;48.242;11.644;2022-09-29T10:38:16;12.10;99.90
16076;DHT22;8142;48.242;11.644;2022-09-29T10:40:55;12.10;99.90
16076;DHT22;8142;48.242;11.644;2022-09-29T10:43:25;12.10;99.90
16076;DHT22;8142;48.242;11.644;2022-09-29T10:45:52;12.10;99.90
16076;DHT22;8142;48.242;11.644;2022-09-29T10:48:24;12.10;99.90
16076;DHT22;8142;48.242;11.644;2022-09-29T10:51:02;12.00;99.90
16076;DHT22;8142;48.242;11.644;2022-09-29T10:53:41;12.10;99.90
16076;DHT22;8142;48.242;11.644;2022-09-29T10:56:17;12.10;99.90
16076;DHT22;8142;48.242;11.644;2022-09-29T10:58:53;12.10;99.90
16076;DHT22;8142;48.242;11.644;2022-09-29T11:01:20;12.10;99.90
16076;DHT22;8142;48.242;11.644;2022-09-29T11:04:02;12.10;99.90
16076;DHT22;8142;48.242;11.644;2022-09-29T11:06:33;12.10;99.90
16076;DHT22;8142;48.242;11.644;2022-09-29T11:13:57;12.10;99.90
16076;DHT22;8142;48.242;11.644;2022-09-29T11:16:30;12.10;99.90
16076;DHT22;8142;48.242;11.644;2022-09-29T11:19:09;12.10;99.90
16076;DHT22;8142;48.242;11.644;2022-09-29T11:29:44;12.10;99.90
16076;DHT22;8142;48.242;11.644;2022-09-29T11:32:28;12.10;99.90
16076;DHT22;8142;48.242;11.644;2022-09-29T11:43:50;12.20;99.90
16076;DHT22;8142;48.242;11.644;2022-09-29T11:58:34;12.30;99.90
16076;DHT22;8142;48.242;11.644;2022-09-29T12:00:49;12.30;99.90
16076;DHT22;8142;48.242;11.644;2022-09-29T12:03:38;12.30;99.90
16076;DHT22;8142;48.242;11.644;2022-09-29T12:14:21;12.40;99.90
16076;DHT22;8142;48.242;11.644;2022-09-29T12:16:56;12.20;99.90
16076;DHT22;8142;48.242;11.644;2022-09-29T12:19:26;12.30;99.90
16076;DHT22;8142;48.242;11.644;2022-09-29T12:21:55;12.40;99.90
16076;DHT22;8142;48.242;11.644;2022-09-29T12:24:47;12.30;99.90
16076;DHT22;8142;48.242;11.644;2022-09-29T12:27:35;12.40;99.90
16076;DHT22;8142;48.242;11.644;2022-09-29T12:30:24;12.40;99.90
16076;DHT22;8142;48.242;11.644;2022-09-29T12:33:04;12.40;99.90
16076;DHT22;8142;48.242;11.644;2022-09-29T12:36:14;12.40;99.90
16076;DHT22;8142;48.242;11.644;2022-09-29T12:41:50;12.40;99.90
16076;DHT22;8142;48.242;11.644;2022-09-29T12:44:29;12.40;99.90
16076;DHT22;8142;48.242;11.644;2022-09-29T12:52:30;12.50;99.90
16076;DHT22;8142;48.242;11.644;2022-09-29T12:55:02;12.50;99.90
16076;DHT22;8142;48.242;11.644;2022-09-29T12:57:35;12.50;99.90
16076;DHT22;8142;48.242;11.644;2022-09-29T13:03:11;12.50;99.90
16076;DHT22;8142;48.242;11.644;2022-09-29T13:11:19;12.50;99.90
16076;DHT22;8142;48.242;11.644;2022-09-29T13:17:03;12.50;99.90
16076;DHT22;8142;48.242;11.644;2022-09-29T13:19:47;12.50;99.90
16076;DHT22;8142;48.242;11.644;2022-09-29T13:27:40;12.40;99.90
16076;DHT22;8142;48.242;11.644;2022-09-29T13:35:22;12.30;99.90
16076;DHT22;8142;48.242;11.644;2022-09-29T13:37:54;12.30;99.90
16076;DHT22;8142;48.242;11.644;2022-09-29T13:40:23;12.30;99.90
16076;DHT22;8142;48.242;11.644;2022-09-29T13:42:52;12.30;99.90
16076;DHT22;8142;48.242;11.644;2022-09-29T13:58:36;12.10;99.90
16076;DHT22;8142;48.242;11.644;2022-09-29T14:01:08;12.20;99.90
16076;DHT22;8142;48.242;11.644;2022-09-29T14:03:43;12.10;99.90
16076;DHT22;8142;48.242;11.644;2022-09-29T14:06:23;12.10;99.90
16076;DHT22;8142;48.242;11.644;2022-09-29T14:09:12;12.00;99.90
16076;DHT22;8142;48.242;11.644;2022-09-29T14:11:48;12.00;99.90
16076;DHT22;8142;48.242;11.644;2022-09-29T14:14:29;12.00;99.90
16076;DHT22;8142;48.242;11.644;2022-09-29T14:17:04;12.00;99.90
16076;DHT22;8142;48.242;11.644;2022-09-29T14:33:00;11.80;99.90
16076;DHT22;8142;48.242;11.644;2022-09-29T14:35:27;11.80;99.90
16076;DHT22;8142;48.242;11.644;2022-09-29T14:38:14;11.70;99.90
16076;DHT22;8142;48.242;11.644;2022-09-29T14:41:01;11.70;99.90
16076;DHT22;8142;48.242;11.644;2022-09-29T15:03:27;11.40;99.90
16076;DHT22;8142;48.242;11.644;2022-09-29T15:06:24;11.30;99.90
16076;DHT22;8142;48.242;11.644;2022-09-29T15:08:56;11.10;99.90
16076;DHT22;8142;48.242;11.644;2022-09-29T15:13:56;10.80;99.90
16076;DHT22;8142;48.242;11.644;2022-09-29T15:19:29;10.50;99.90
16076;DHT22;8142;48.242;11.644;2022-09-29T15:28:14;10.20;99.90
16076;DHT22;8142;48.242;11.644;2022-09-29T15:30:41;10.10;99.90
16076;DHT22;8142;48.242;11.644;2022-09-29T15:35:43;10.00;99.90
16076;DHT22;8142;48.242;11.644;2022-09-29T15:40:42;10.00;99.90
16076;DHT22;8142;48.242;11.644;2022-09-29T15:43:25;10.00;99.90
16076;DHT22;8142;48.242;11.644;2022-09-29T15:46:15;10.00;99.90
16076;DHT22;8142;48.242;11.644;2022-09-29T15:51:29;9.90;99.90
16076;DHT22;8142;48.242;11.644;2022-09-29T15:53:55;9.90;99.90
16076;DHT22;8142;48.242;11.644;2022-09-29T15:56:21;9.80;99.90
16076;DHT22;8142;48.242;11.644;2022-09-29T15:58:47;9.90;99.90
16076;DHT22;8142;48.242;11.644;2022-09-29T16:01:14;9.90;99.90
16076;DHT22;8142;48.242;11.644;2022-09-29T16:03:54;10.00;99.90
16076;DHT22;8142;48.242;11.644;2022-09-29T16:06:31;10.10;99.90
16076;DHT22;8142;48.242;11.644;2022-09-29T16:09:01;10.10;99.90
16076;DHT22;8142;48.242;11.644;2022-09-29T16:11:36;10.20;99.90
16076;DHT22;8142;48.242;11.644;2022-09-29T16:14:10;10.30;99.90
16076;DHT22;8142;48.242;11.644;2022-09-29T16:16:46;10.30;99.90
16076;DHT22;8142;48.242;11.644;2022-09-29T16:19:17;10.30;99.90
16076;DHT22;8142;48.242;11.644;2022-09-29T16:21:50;10.40;99.90
16076;DHT22;8142;48.242;11.644;2022-09-29T16:24:18;10.40;99.90
16076;DHT22;8142;48.242;11.644;2022-09-29T16:26:48;10.50;99.90
16076;DHT22;8142;48.242;11.644;2022-09-29T16:31:42;10.50;99.90
16076;DHT22;8142;48.242;11.644;2022-09-29T16:39:21;10.50;99.90
16076;DHT22;8142;48.242;11.644;2022-09-29T16:41:50;10.50;99.90
16076;DHT22;8142;48.242;11.644;2022-09-29T16:46:53;10.50;99.90
16076;DHT22;8142;48.242;11.644;2022-09-29T16:49:34;10.50;99.90
16076;DHT22;8142;48.242;11.644;2022-09-29T16:54:41;10.50;99.90
16076;DHT22;8142;48.242;11.644;2022-09-29T16:57:28;10.50;99.90
16076;DHT22;8142;48.242;11.644;2022-09-29T17:00:13;10.50;99.90
16076;DHT22;8142;48.242;11.644;2022-09-29T17:02:38;10.50;99.90
16076;DHT22;8142;48.242;11.644;2022-09-29T17:05:04;10.50;99.90
16076;DHT22;8142;48.242;11.644;2022-09-29T17:07:31;10.50;99.90
16076;DHT22;8142;48.242;11.644;2022-09-29T17:10:03;10.50;99.90
16076;DHT22;8142;48.242;11.644;2022-09-29T17:12:30;10.60;99.90
16076;DHT22;8142;48.242;11.644;2022-09-29T17:14:56;10.40;99.90
16076;DHT22;8142;48.242;11.644;2022-09-29T17:17:25;10.60;99.90
16076;DHT22;8142;48.242;11.644;2022-09-29T17:19:53;10.60;99.90
16076;DHT22;8142;48.242;11.644;2022-09-29T17:22:29;10.60;99.90
16076;DHT22;8142;48.242;11.644;2022-09-29T17:24:56;10.50;99.90
16076;DHT22;8142;48.242;11.644;2022-09-29T17:27:23;10.50;99.90
16076;DHT22;8142;48.242;11.644;2022-09-29T17:30:09;10.50;99.90
16076;DHT22;8142;48.242;11.644;2022-09-29T17:32:35;10.50;99.90
16076;DHT22;8142;48.242;11.644;2022-09-29T17:35:01;10.50;99.90
16076;DHT22;8142;48.242;11.644;2022-09-29T17:37:27;10.40;99.90
16076;DHT22;8142;48.242;11.644;2022-09-29T17:39:53;10.40;99.90
16076;DHT22;8142;48.242;11.644;2022-09-29T17:42:21;10.40;99.90
16076;DHT22;8142;48.242;11.644;2022-09-29T17:44:51;10.40;99.90
16076;DHT22;8142;48.242;11.644;2022-09-29T17:47:17;10.40;99.90
16076;DHT22;8142;48.242;11.644;2022-09-29T17:49:44;10.40;99.90
16076;DHT22;8142;48.242;11.644;2022-09-29T17:52:16;10.40;99.90
16076;DHT22;8142;48.242;11.644;2022-09-29T17:54:44;10.40;99.90
16076;DHT22;8142;48.242;11.644;2022-09-29T17:57:19;10.40;99.90
16076;DHT22;8142;48.242;11.644;2022-09-29T17:59:45;10.30;99.90
16076;DHT22;8142;48.242;11.644;2022-09-29T18:02:11;10.30;99.90
16076;DHT22;8142;48.242;11.644;2022-09-29T18:04:38;10.30;99.90
16076;DHT22;8142;48.242;11.644;2022-09-29T18:07:10;10.30;99.90
16076;DHT22;8142;48.242;11.644;2022-09-29T18:09:38;10.30;99.90
16076;DHT22;8142;48.242;11.644;2022-09-29T18:12:04;10.30;99.90
16076;DHT22;8142;48.242;11.644;2022-09-29T18:14:30;10.30;99.90
16076;DHT22;8142;48.242;11.644;2022-09-29T18:17:00;10.30;99.90
16076;DHT22;8142;48.242;11.644;2022-09-29T18:19:29;10.20;99.90
16076;DHT22;8142;48.242;11.644;2022-09-29T18:21:55;9.90;99.90
16076;DHT22;8142;48.242;11.644;2022-09-29T18:24:22;9.90;99.90
16076;DHT22;8142;48.242;11.644;2022-09-29T18:26:48;9.80;99.90
16076;DHT22;8142;48.242;11.644;2022-09-29T18:29:17;9.60;99.90
16076;DHT22;8142;48.242;11.644;2022-09-29T18:31:44;9.50;99.90
16076;DHT22;8142;48.242;11.644;2022-09-29T18:34:15;9.40;99.90
16076;DHT22;8142;48.242;11.644;2022-09-29T18:36:42;9.30;99.90
16076;DHT22;8142;48.242;11.644;2022-09-29T18:39:10;9.20;99.90
16076;DHT22;8142;48.242;11.644;2022-09-29T18:41:37;9.20;99.90
16076;DHT22;8142;48.242;11.644;2022-09-29T18:44:14;9.10;99.90
16076;DHT22;8142;48.242;11.644;2022-09-29T18:46:41;9.10;99.90
16076;DHT22;8142;48.242;11.644;2022-09-29T18:49:10;9.20;99.90
16076;DHT22;8142;48.242;11.644;2022-09-29T18:51:37;9.20;99.90
16076;DHT22;8142;48.242;11.644;2022-09-29T18:54:04;9.30;99.90
16076;DHT22;8142;48.242;11.644;2022-09-29T18:56:31;9.40;99.90
16076;DHT22;8142;48.242;11.644;2022-09-29T18:58:57;9.40;99.90
16076;DHT22;8142;48.242;11.644;2022-09-29T19:01:24;9.50;99.90
16076;DHT22;8142;48.242;11.644;2022-09-29T19:03:54;9.50;99.90
16076;DHT22;8142;48.242;11.644;2022-09-29T19:06:20;9.60;99.90
16076;DHT22;8142;48.242;11.644;2022-09-29T19:08:47;9.60;99.90
16076;DHT22;8142;48.242;11.644;2022-09-29T19:11:25;9.70;99.90
16076;DHT22;8142;48.242;11.644;2022-09-29T19:13:52;9.70;99.90
16076;DHT22;8142;48.242;11.644;2022-09-29T19:16:21;9.70;99.90